EmailTwitter


Observations de surface / Québec / CYMX

Régions: Québec | Canada | États-Unis | Europe | France | UK | Ailleurs
Station
Affichage
Infos & localisation pour CYMX | Aide pour décoder les METARs

Observations prises le 2019-04-22 à 05H00 UTC à MONTREAL MIRABEL, QB (CYMX)

Etat du ciel: quelques nuages.

Température: 5.0 Celsius

Point de rosée: 5.0 Celsius

Humidité relative: 100%

Vents: Sud-ouest à 6 km/h ou 3 noeuds.

Pression au niveau moyen de la mer: 102.24 kilopascals.

Calage altimétrique: 102.20 kilopascals ou 30.18 pouces de mercure.

Visibilité horizontale: 25.00 milles terrestres ou 40.00 kilomètres.

Observation METAR:

CYMX 220500Z 24003KT 25SM FEW025 FEW100 05/05 A3018 RMK SC1AC1 SC TR AC TR

SLP224=